Hlavní strana
METAR-TAF:

METAR-TAF

Letiště :

Magnitogorsk, Rusko

zeměpisná šířka: 53-23-36N, zeměpisná délka: 058-45-24E, výška: 436 m

Aktuální stav počasí

Zpráva byla vytvořena před 39 minutami, v 11:30 UTC
Západní vítr 14 kt
Teplota 15°C
Vlhkost vzduchu 25%
Tlak 1014 hPa
Viditelnost 10 km a více
Polojasno ve výšce 4000 ft

METAR: USCM 231130Z 26007MPS 9999 SCT040 15/M05 Q1014 R36/090060 TEMPO 30015MPS RMK QFE722

Čas: 17:09 (12:09 UTC)

Předpověď počasí

Zpráva byla vytvořena před 1 hodinou a 9 minutami, v 11:00 UTC
Předpověď platná od 23 v 12 UTC do 23 v 21 UTC
Západoseverozápadní vítr 10 kt s nárazy do 25 kt
Viditelnost 10 km a více
Polojasno ve výšce 4000 ft
Dočasný
od 23 v 18 UTC do 23 v 21 UTC
Severozápadní vítr 6 kt s nárazy do 19 kt

TAF: USCM 231100Z 2312/2321 29005G13MPS 9999 SCT040 TEMPO 2318/2321 32003G10MPS

Stav a předpovědi počasí z více než 4 000 letišť (zprávy METAR a TAF).

Červené a žluté tečky na mapě představují dostupné meteorologické stanice.

Když kurzor umístíte na tečku, zobrazí se název stanice.

Pak kliknutím zobrazíte stav a předpověď počasí.

Chcete-li změnit mapu, kliknutím na zelené tlačítko se znaménkem +mapu přiblížíte, kliknutím na zelené tlačítko se znaménkem – mapu oddálíte a kliknutím na zelené šipky přejdete na sousední mapy.


METAR-TAF: